Time;durP1;ratioP1;P1;durP2;ratioP2;P2;SDS_P1;SDS_P2;PMS_P1;PMS_P2;Temp;Humidity;BMP_temperature;BMP_pressure;BME280_temperature;BME280_humidity;BME280_pressure;Samples;Min_cycle;Max_cycle;Signal;HPM_P1;HPM_P2
2023/03/28 00:02:07;;;;;;;20.00;8.70;;;1.30;99.90;;;;;;5003485;28;20132;-78
2023/03/28 00:04:36;;;;;;;15.90;9.75;;;1.30;99.90;;;;;;4997685;28;20042;-82
2023/03/28 00:07:02;;;;;;;11.85;8.82;;;1.30;99.90;;;;;;4986618;28;20655;-78
2023/03/28 00:09:30;;;;;;;20.17;8.88;;;1.40;99.90;;;;;;4990128;28;20073;-80
2023/03/28 00:11:57;;;;;;;14.35;9.48;;;1.40;99.90;;;;;;5001595;28;20056;-79
2023/03/28 00:14:23;;;;;;;17.30;8.55;;;1.40;99.90;;;;;;5004843;28;20132;-79
2023/03/28 00:16:51;;;;;;;12.88;8.68;;;1.40;99.90;;;;;;5002624;28;20161;-78
2023/03/28 00:19:19;;;;;;;14.07;9.07;;;1.40;99.90;;;;;;5003326;28;20050;-79
2023/03/28 00:21:48;;;;;;;17.83;8.85;;;1.50;99.90;;;;;;5005762;28;20042;-82
2023/03/28 00:24:20;;;;;;;20.75;10.38;;;1.50;99.90;;;;;;5003038;28;20041;-81
2023/03/28 00:26:53;;;;;;;13.90;8.57;;;1.50;99.90;;;;;;5008551;28;20046;-79
2023/03/28 00:29:21;;;;;;;12.88;8.88;;;1.50;99.90;;;;;;5006045;28;20565;-78
2023/03/28 00:31:48;;;;;;;16.20;9.02;;;1.40;99.90;;;;;;4991795;28;20054;-79
2023/03/28 00:34:16;;;;;;;14.93;8.15;;;1.40;99.90;;;;;;4984254;28;20546;-78
2023/03/28 00:36:43;;;;;;;18.38;8.90;;;1.40;99.90;;;;;;5001247;28;20048;-78
2023/03/28 00:39:10;;;;;;;19.00;9.38;;;1.40;99.90;;;;;;5003937;28;20060;-80
2023/03/28 00:41:41;;;;;;;22.27;9.10;;;1.40;99.90;;;;;;4998108;28;20050;-79
2023/03/28 00:44:47;;;;;;;19.48;8.80;;;1.40;99.90;;;;;;5002276;28;20058;-78
2023/03/28 00:47:37;;;;;;;17.25;9.23;;;1.40;99.90;;;;;;4994233;28;20049;-81
2023/03/28 00:50:12;;;;;;;9.93;8.82;;;1.40;99.90;;;;;;5007563;28;20045;-81
2023/03/28 00:52:48;;;;;;;23.73;9.88;;;1.40;99.90;;;;;;4984010;28;20050;-78
2023/03/28 00:55:20;;;;;;;18.48;9.10;;;1.40;99.90;;;;;;4998864;28;20049;-78
2023/03/28 00:57:49;;;;;;;12.88;9.23;;;1.50;99.90;;;;;;5005864;28;20124;-78
2023/03/28 01:00:17;;;;;;;22.45;9.35;;;1.40;99.90;;;;;;5002171;28;20038;-78
2023/03/28 01:02:51;;;;;;;22.95;10.02;;;1.50;99.90;;;;;;5009858;28;20049;-78
2023/03/28 01:05:23;;;;;;;15.57;9.02;;;1.40;99.90;;;;;;5005928;28;20054;-77
2023/03/28 01:07:54;;;;;;;14.43;8.35;;;1.40;99.90;;;;;;4992582;28;20527;-80
2023/03/28 01:10:23;;;;;;;12.57;8.30;;;1.40;99.90;;;;;;4996783;28;20045;-78
2023/03/28 01:12:50;;;;;;;17.63;8.93;;;1.40;99.90;;;;;;5004898;28;20132;-80
2023/03/28 01:15:19;;;;;;;15.13;9.27;;;1.40;99.90;;;;;;5003982;28;20455;-78
2023/03/28 01:17:52;;;;;;;22.45;9.05;;;1.40;99.90;;;;;;5005770;28;20037;-78
2023/03/28 01:20:28;;;;;;;18.70;8.82;;;1.40;99.90;;;;;;5005778;28;20686;-81
2023/03/28 01:23:25;;;;;;;12.80;8.68;;;1.30;99.90;;;;;;5001177;28;20620;-78
2023/03/28 01:26:10;;;;;;;16.88;8.43;;;1.30;99.90;;;;;;5008466;28;20050;-77
2023/03/28 01:28:59;;;;;;;15.60;8.52;;;1.30;99.90;;;;;;5000452;28;20140;-77
2023/03/28 01:31:48;;;;;;;20.08;8.20;;;1.30;99.90;;;;;;5003346;28;20075;-78
2023/03/28 01:35:06;;;;;;;18.58;8.30;;;1.30;99.90;;;;;;5005929;28;20052;-75
2023/03/28 01:37:36;;;;;;;15.93;8.02;;;1.30;99.90;;;;;;5008609;28;20046;-78
2023/03/28 01:40:14;;;;;;;19.25;8.18;;;1.30;99.90;;;;;;5007133;28;20041;-76
2023/03/28 01:43:07;;;;;;;15.48;8.35;;;1.30;99.90;;;;;;4984123;28;20044;-79
2023/03/28 01:46:13;;;;;;;25.02;9.60;;;1.30;99.90;;;;;;4982253;28;20109;-76
2023/03/28 01:49:00;;;;;;;13.68;8.70;;;1.20;99.90;;;;;;4998024;28;20038;-78
2023/03/28 01:51:55;;;;;;;15.02;8.90;;;1.20;99.90;;;;;;5006430;28;20042;-76
2023/03/28 01:54:32;;;;;;;17.17;7.97;;;1.20;99.90;;;;;;4982009;28;20113;-78
2023/03/28 01:57:35;;;;;;;14.65;7.40;;;1.20;99.90;;;;;;5006174;28;20065;-76
2023/03/28 02:00:53;;;;;;;17.15;9.55;;;1.20;99.90;;;;;;4987079;28;20526;-77
2023/03/28 02:03:25;;;;;;;28.98;7.75;;;1.20;99.90;;;;;;4970321;28;20524;-77
2023/03/28 02:06:29;;;;;;;20.15;8.20;;;1.20;99.90;;;;;;4954465;28;20047;-76
2023/03/28 02:09:00;;;;;;;18.70;9.15;;;1.20;99.90;;;;;;4999692;28;20095;-77
2023/03/28 02:11:48;;;;;;;28.15;8.82;;;1.30;99.90;;;;;;4992000;28;20049;-78
2023/03/28 02:14:27;;;;;;;12.45;7.50;;;1.20;99.90;;;;;;5005931;28;20048;-76
2023/03/28 02:17:23;;;;;;;17.75;8.25;;;1.20;99.90;;;;;;4996105;28;20123;-77
2023/03/28 02:20:18;;;;;;;13.88;8.32;;;1.20;99.90;;;;;;5006301;28;20190;-77
2023/03/28 02:23:19;;;;;;;21.55;9.23;;;1.20;99.90;;;;;;4948263;28;20043;-77
2023/03/28 02:26:05;;;;;;;17.30;8.45;;;1.20;99.90;;;;;;5004095;28;20038;-77
2023/03/28 02:28:56;;;;;;;13.30;8.25;;;1.20;99.90;;;;;;5009662;28;20060;-77
2023/03/28 02:31:37;;;;;;;21.02;10.32;;;1.20;99.90;;;;;;4990747;28;20042;-78
2023/03/28 02:34:04;;;;;;;25.33;8.50;;;1.20;99.90;;;;;;5008878;28;20037;-77
2023/03/28 02:36:47;;;;;;;17.50;8.05;;;1.20;99.90;;;;;;5009464;28;20527;-77
2023/03/28 02:39:22;;;;;;;13.32;7.68;;;1.20;99.90;;;;;;4999663;28;20054;-80
2023/03/28 02:42:27;;;;;;;19.80;7.90;;;1.20;99.90;;;;;;5013152;28;20053;-78
2023/03/28 02:45:12;;;;;;;19.70;8.13;;;1.20;99.90;;;;;;4971887;28;20084;-80
2023/03/28 02:48:09;;;;;;;22.63;8.88;;;1.10;99.90;;;;;;4990784;28;20042;-78
2023/03/28 02:51:05;;;;;;;17.73;8.10;;;1.10;99.90;;;;;;4997580;28;20284;-77
2023/03/28 02:53:57;;;;;;;19.20;8.13;;;1.10;99.90;;;;;;5006049;28;20344;-80
2023/03/28 02:56:28;;;;;;;21.83;8.68;;;1.10;99.90;;;;;;4990314;28;20046;-81
2023/03/28 02:59:17;;;;;;;23.27;8.63;;;1.10;99.90;;;;;;4994098;28;20330;-81
2023/03/28 03:01:44;;;;;;;14.38;8.20;;;1.10;99.90;;;;;;4984568;28;20324;-78
2023/03/28 03:04:12;;;;;;;15.38;8.18;;;1.10;99.90;;;;;;4987615;28;20096;-80
2023/03/28 03:06:39;;;;;;;16.20;8.60;;;1.00;99.90;;;;;;4994577;28;20080;-76
2023/03/28 03:09:07;;;;;;;17.08;8.75;;;1.00;99.90;;;;;;5006489;28;20077;-77
2023/03/28 03:11:33;;;;;;;26.88;10.48;;;1.00;99.90;;;;;;4984631;28;20072;-77
2023/03/28 03:14:03;;;;;;;22.35;8.18;;;1.00;99.90;;;;;;4990685;28;20053;-77
2023/03/28 03:16:31;;;;;;;20.88;8.20;;;1.00;99.90;;;;;;5003953;28;20535;-78
2023/03/28 03:18:58;;;;;;;12.35;8.40;;;1.00;99.90;;;;;;4986385;28;20065;-77
2023/03/28 03:21:26;;;;;;;23.13;8.50;;;1.00;99.90;;;;;;5010005;28;20042;-76
2023/03/28 03:23:52;;;;;;;16.90;8.57;;;0.90;99.90;;;;;;5009639;28;20096;-78
2023/03/28 03:26:19;;;;;;;24.55;8.63;;;0.90;99.90;;;;;;5006804;28;20132;-76
2023/03/28 03:28:59;;;;;;;13.07;7.75;;;0.90;99.90;;;;;;4986392;28;20133;-77
2023/03/28 03:31:26;;;;;;;16.25;8.10;;;0.90;99.90;;;;;;4989817;28;20050;-77
2023/03/28 03:34:16;;;;;;;15.35;7.20;;;0.90;99.90;;;;;;5004322;28;20050;-77
2023/03/28 03:36:48;;;;;;;19.70;7.90;;;0.90;99.90;;;;;;5002403;28;20042;-75
2023/03/28 03:39:15;;;;;;;29.05;8.35;;;0.80;99.90;;;;;;5003546;28;20088;-77
2023/03/28 03:41:42;;;;;;;14.52;7.35;;;0.80;99.90;;;;;;5011513;28;20095;-75
2023/03/28 03:44:09;;;;;;;21.58;8.80;;;0.80;99.90;;;;;;5005280;28;20096;-77
2023/03/28 03:46:36;;;;;;;22.83;8.27;;;0.80;99.90;;;;;;4990599;28;20082;-75
2023/03/28 03:49:03;;;;;;;30.20;8.55;;;0.70;99.90;;;;;;5001886;28;20046;-77
2023/03/28 03:51:29;;;;;;;18.92;7.95;;;0.70;99.90;;;;;;4985234;28;20077;-77
2023/03/28 03:53:57;;;;;;;21.20;8.23;;;0.70;99.90;;;;;;4992665;28;20104;-75
2023/03/28 03:56:32;;;;;;;20.92;7.70;;;0.70;99.90;;;;;;4995277;28;20037;-78
2023/03/28 03:59:00;;;;;;;21.88;8.00;;;0.60;99.90;;;;;;5004467;28;20129;-76
2023/03/28 04:01:29;;;;;;;15.85;7.30;;;0.60;99.90;;;;;;4989227;28;20258;-77
2023/03/28 04:04:26;;;;;;;24.00;10.38;;;0.50;99.90;;;;;;4980153;28;20496;-79
2023/03/28 04:07:04;;;;;;;11.00;7.35;;;0.50;99.90;;;;;;5008691;28;20113;-77
2023/03/28 04:09:32;;;;;;;16.38;8.60;;;0.50;99.90;;;;;;5007157;28;20108;-78
2023/03/28 04:12:02;;;;;;;19.00;7.85;;;0.40;99.90;;;;;;4999186;28;20050;-79
2023/03/28 04:14:31;;;;;;;24.92;10.10;;;0.40;99.90;;;;;;4992769;28;20099;-77
2023/03/28 04:17:22;;;;;;;27.83;8.77;;;0.30;99.90;;;;;;4972390;28;20050;-77
2023/03/28 04:19:49;;;;;;;23.08;8.27;;;0.30;99.90;;;;;;5009919;23;20511;-74
2023/03/28 04:22:17;;;;;;;18.90;9.45;;;0.30;99.90;;;;;;4999064;28;20252;-75
2023/03/28 04:24:52;;;;;;;21.58;9.60;;;0.30;99.90;;;;;;5013560;28;20551;-75
2023/03/28 04:27:33;;;;;;;30.17;10.50;;;0.20;99.90;;;;;;5017918;28;20100;-74
2023/03/28 04:30:01;;;;;;;21.67;8.15;;;0.20;99.90;;;;;;5003008;28;20123;-75
2023/03/28 04:32:53;;;;;;;21.77;8.80;;;0.20;99.90;;;;;;5014758;28;20041;-75
2023/03/28 04:35:23;;;;;;;21.33;9.73;;;0.10;99.90;;;;;;5013325;28;20319;-74
2023/03/28 04:37:52;;;;;;;21.50;9.73;;;0.10;99.90;;;;;;5012153;28;20045;-75
2023/03/28 04:40:20;;;;;;;23.08;8.75;;;0.20;99.90;;;;;;5011373;28;20040;-76
2023/03/28 04:42:52;;;;;;;21.25;8.85;;;0.20;99.90;;;;;;5015412;28;20284;-75
2023/03/28 04:45:32;;;;;;;27.75;11.88;;;0.20;99.90;;;;;;5015893;28;20045;-76
2023/03/28 04:48:10;;;;;;;21.00;10.40;;;0.20;99.90;;;;;;5012623;28;20049;-74
2023/03/28 04:50:37;;;;;;;24.90;12.10;;;0.30;99.90;;;;;;4999269;28;20056;-74
2023/03/28 04:53:04;;;;;;;33.35;11.90;;;0.20;99.90;;;;;;5016482;28;20079;-76
2023/03/28 04:55:31;;;;;;;30.15;11.77;;;0.20;99.90;;;;;;5014056;28;21011;-75
2023/03/28 04:58:04;;;;;;;27.52;13.20;;;0.20;99.90;;;;;;5016167;28;20632;-74
2023/03/28 05:00:31;;;;;;;29.42;13.23;;;0.20;99.90;;;;;;5003596;28;20051;-74
2023/03/28 05:03:03;;;;;;;34.03;13.40;;;0.20;99.90;;;;;;5019385;28;20044;-75
2023/03/28 05:05:41;;;;;;;34.92;14.52;;;0.20;99.90;;;;;;4999792;28;20498;-75
2023/03/28 05:08:13;;;;;;;27.48;13.35;;;0.20;99.90;;;;;;5015904;28;20293;-75
2023/03/28 05:10:42;;;;;;;34.70;15.73;;;0.20;99.90;;;;;;5014752;28;20433;-74
2023/03/28 05:13:10;;;;;;;31.83;14.40;;;0.20;99.90;;;;;;5010356;28;20053;-77
2023/03/28 05:15:44;;;;;;;34.70;15.82;;;0.20;99.90;;;;;;5012097;28;20048;-75
2023/03/28 05:18:23;;;;;;;32.33;15.02;;;0.20;99.90;;;;;;5013552;28;20068;-74
2023/03/28 05:20:50;;;;;;;29.50;15.23;;;0.30;99.90;;;;;;5011588;28;20550;-73
2023/03/28 05:23:17;;;;;;;40.10;16.40;;;0.30;99.90;;;;;;4998660;28;20091;-75
2023/03/28 05:25:52;;;;;;;26.15;14.07;;;0.30;99.90;;;;;;4999231;28;20052;-75
2023/03/28 05:28:20;;;;;;;27.50;13.48;;;0.30;99.90;;;;;;5011558;28;20166;-75
2023/03/28 05:30:50;;;;;;;28.27;15.23;;;0.30;99.90;;;;;;5034966;23;20396;-72
2023/03/28 05:33:17;;;;;;;34.58;15.80;;;0.30;99.90;;;;;;5026885;28;20372;-71
2023/03/28 05:35:45;;;;;;;31.48;14.38;;;0.30;99.90;;;;;;5026932;28;20052;-70
2023/03/28 05:38:13;;;;;;;41.63;14.95;;;0.30;99.90;;;;;;5030758;28;20108;-71
2023/03/28 05:40:40;;;;;;;27.73;15.90;;;0.40;99.90;;;;;;5023783;28;20040;-71
2023/03/28 05:43:07;;;;;;;36.33;16.65;;;0.40;99.90;;;;;;5018073;28;20574;-71
2023/03/28 05:45:35;;;;;;;48.40;17.98;;;0.30;99.90;;;;;;5009226;28;20547;-69
2023/03/28 05:48:07;;;;;;;38.30;17.52;;;0.40;99.90;;;;;;5022941;28;20052;-71
2023/03/28 05:50:35;;;;;;;30.42;18.45;;;0.30;99.90;;;;;;5019401;28;20225;-72
2023/03/28 05:53:05;;;;;;;39.28;19.15;;;0.40;99.90;;;;;;5018429;28;20049;-70
2023/03/28 05:55:33;;;;;;;34.95;18.17;;;0.50;99.90;;;;;;5016137;28;20850;-71
2023/03/28 05:58:02;;;;;;;36.85;19.98;;;0.50;99.90;;;;;;5020458;28;20069;-71
2023/03/28 06:00:36;;;;;;;43.53;19.98;;;0.50;99.90;;;;;;5008415;28;20180;-71
2023/03/28 06:03:06;;;;;;;34.08;20.33;;;0.40;99.90;;;;;;5024475;28;20041;-71
2023/03/28 06:05:36;;;;;;;43.67;21.70;;;0.50;99.90;;;;;;5018804;28;20141;-70
2023/03/28 06:08:09;;;;;;;37.50;21.52;;;0.50;99.90;;;;;;5016788;28;20049;-72
2023/03/28 06:10:36;;;;;;;46.50;23.40;;;0.50;99.90;;;;;;5011332;28;20045;-71
2023/03/28 06:13:14;;;;;;;48.25;23.48;;;0.60;99.90;;;;;;5003118;28;20049;-71
2023/03/28 06:15:44;;;;;;;43.78;22.33;;;0.60;99.90;;;;;;5016520;28;20470;-73
2023/03/28 06:18:11;;;;;;;45.50;22.08;;;0.60;99.90;;;;;;5015067;28;20038;-72
2023/03/28 06:20:43;;;;;;;47.67;24.88;;;0.50;99.90;;;;;;5018138;28;20037;-71
2023/03/28 06:23:10;;;;;;;42.72;22.45;;;0.50;99.90;;;;;;5013973;28;20048;-72
2023/03/28 06:25:36;;;;;;;58.35;24.02;;;0.50;99.90;;;;;;4995909;28;20041;-71
2023/03/28 06:28:03;;;;;;;56.45;24.40;;;0.60;99.90;;;;;;5022593;28;20519;-72
2023/03/28 06:30:31;;;;;;;42.63;22.10;;;0.60;99.90;;;;;;5018627;28;20060;-70
2023/03/28 06:32:59;;;;;;;49.58;23.63;;;0.60;99.90;;;;;;5016193;28;20183;-73
2023/03/28 06:35:25;;;;;;;52.95;25.63;;;0.60;99.90;;;;;;5018843;28;20041;-72
2023/03/28 06:37:52;;;;;;;47.28;24.95;;;0.60;99.90;;;;;;5021333;28;20135;-72
2023/03/28 06:40:25;;;;;;;58.22;28.58;;;0.60;99.90;;;;;;5017656;28;20043;-72
2023/03/28 06:42:52;;;;;;;57.13;27.48;;;0.60;99.90;;;;;;5022054;28;20055;-72
2023/03/28 06:45:41;;;;;;;57.88;28.35;;;0.70;99.90;;;;;;5024616;28;20046;-72
2023/03/28 06:48:11;;;;;;;54.38;28.30;;;0.70;99.90;;;;;;5009116;28;20047;-72
2023/03/28 06:51:07;;;;;;;62.42;29.65;;;0.60;99.90;;;;;;5012684;28;20037;-70
2023/03/28 06:53:36;;;;;;;56.40;31.75;;;0.70;99.90;;;;;;5016505;28;20130;-69
2023/03/28 06:56:03;;;;;;;61.65;31.88;;;0.70;99.90;;;;;;5013014;28;20041;-71
2023/03/28 06:58:30;;;;;;;57.42;29.98;;;0.80;99.90;;;;;;5022123;28;20057;-71
2023/03/28 07:01:04;;;;;;;59.33;30.60;;;0.80;99.90;;;;;;5020555;28;20038;-71
2023/03/28 07:03:48;;;;;;;50.35;30.13;;;0.90;99.90;;;;;;5020337;28;20115;-71
2023/03/28 07:06:20;;;;;;;54.53;30.80;;;1.00;99.90;;;;;;5025588;28;20041;-72
2023/03/28 07:08:47;;;;;;;47.45;30.70;;;1.00;99.90;;;;;;5025845;28;20045;-72
2023/03/28 07:11:16;;;;;;;47.28;29.90;;;1.10;99.90;;;;;;5023640;28;20048;-72
2023/03/28 07:13:47;;;;;;;53.38;30.50;;;1.30;99.90;;;;;;5008595;28;20045;-72
2023/03/28 07:16:15;;;;;;;61.00;31.45;;;1.40;99.90;;;;;;5025049;28;20132;-71
2023/03/28 07:18:42;;;;;;;45.03;29.50;;;1.40;99.90;;;;;;5028277;28;20041;-71
2023/03/28 07:21:15;;;;;;;47.28;31.35;;;1.20;99.90;;;;;;5023785;28;20399;-70
2023/03/28 07:23:43;;;;;;;57.25;32.88;;;1.10;99.90;;;;;;5033205;28;20032;-69
2023/03/28 07:26:13;;;;;;;52.00;30.60;;;1.30;99.90;;;;;;5000233;28;20036;-71
2023/03/28 07:28:40;;;;;;;44.20;31.20;;;1.30;99.90;;;;;;5020033;28;20143;-70
2023/03/28 07:31:07;;;;;;;52.50;32.47;;;1.30;99.90;;;;;;5020619;28;20646;-70
2023/03/28 07:33:35;;;;;;;51.03;31.88;;;1.40;99.90;;;;;;5015468;28;20045;-70
2023/03/28 07:36:14;;;;;;;49.35;31.77;;;1.40;99.90;;;;;;5000881;28;20045;-70
2023/03/28 07:38:43;;;;;;;46.75;30.05;;;1.50;99.90;;;;;;5027376;28;20068;-70
2023/03/28 07:41:14;;;;;;;43.28;29.90;;;1.50;99.90;;;;;;5016354;28;20042;-71
2023/03/28 07:43:40;;;;;;;46.03;30.33;;;1.50;99.90;;;;;;5014437;28;20115;-71
2023/03/28 07:46:13;;;;;;;42.85;29.35;;;1.60;99.90;;;;;;5027990;28;20236;-71
2023/03/28 07:48:40;;;;;;;43.47;28.77;;;1.60;99.90;;;;;;5023911;28;20053;-71
2023/03/28 07:51:09;;;;;;;52.40;31.35;;;1.60;99.90;;;;;;5013154;28;20045;-71
2023/03/28 07:53:36;;;;;;;40.10;27.70;;;1.70;99.90;;;;;;5009855;28;20139;-70
2023/03/28 07:56:09;;;;;;;45.45;29.42;;;1.60;99.90;;;;;;5019971;28;20053;-74
2023/03/28 07:58:52;;;;;;;50.33;29.55;;;1.60;99.90;;;;;;5021495;28;20043;-71
2023/03/28 08:01:21;;;;;;;34.80;27.90;;;1.70;99.90;;;;;;5031443;28;20041;-71
2023/03/28 08:03:52;;;;;;;46.00;30.73;;;1.70;99.90;;;;;;5019640;28;20088;-71
2023/03/28 08:06:19;;;;;;;39.45;28.95;;;1.80;99.90;;;;;;5008416;28;20033;-69
2023/03/28 08:08:57;;;;;;;32.90;27.20;;;1.80;99.90;;;;;;5023076;28;20056;-73
2023/03/28 08:11:40;;;;;;;36.50;27.30;;;1.90;99.90;;;;;;5017935;28;20487;-70
2023/03/28 08:14:09;;;;;;;45.58;28.35;;;2.00;99.90;;;;;;5024247;28;20041;-70
2023/03/28 08:16:37;;;;;;;42.17;29.10;;;2.00;99.90;;;;;;5025321;28;20230;-70
2023/03/28 08:19:04;;;;;;;40.95;28.25;;;2.20;99.90;;;;;;5010302;28;20361;-71
2023/03/28 08:21:47;;;;;;;36.70;29.83;;;2.30;99.90;;;;;;5006612;28;20051;-70
2023/03/28 08:24:14;;;;;;;37.20;30.38;;;2.60;99.90;;;;;;5031550;28;20049;-70
2023/03/28 08:27:03;;;;;;;34.20;29.42;;;2.60;99.90;;;;;;5029388;28;20102;-71
2023/03/28 08:29:30;;;;;;;45.03;28.77;;;2.70;99.90;;;;;;5026635;28;20049;-71
2023/03/28 08:31:57;;;;;;;33.83;29.92;;;2.90;99.90;;;;;;5028424;28;20511;-71
2023/03/28 08:34:24;;;;;;;37.60;32.60;;;3.20;99.90;;;;;;5006337;28;20060;-71
2023/03/28 08:36:54;;;;;;;33.35;29.88;;;3.30;99.90;;;;;;5016293;28;20087;-71
2023/03/28 08:39:25;;;;;;;34.83;29.17;;;3.30;99.90;;;;;;5020470;28;20037;-71
2023/03/28 08:42:12;;;;;;;39.90;32.45;;;3.40;99.90;;;;;;5023935;28;20084;-70
2023/03/28 08:44:54;;;;;;;45.80;36.03;;;3.40;99.90;;;;;;5019146;28;20044;-71
2023/03/28 08:47:27;;;;;;;36.38;32.80;;;3.40;99.90;;;;;;5023085;28;20067;-71
2023/03/28 08:50:00;;;;;;;39.05;30.90;;;3.50;99.90;;;;;;5027593;28;20451;-71
2023/03/28 08:52:28;;;;;;;32.95;29.67;;;4.00;99.90;;;;;;5023390;28;20527;-72
2023/03/28 08:55:01;;;;;;;43.28;34.25;;;4.40;99.90;;;;;;5027351;28;20029;-71
2023/03/28 08:57:31;;;;;;;37.38;33.55;;;4.50;99.90;;;;;;5022111;28;20063;-71
2023/03/28 09:00:08;;;;;;;39.38;35.35;;;4.70;99.90;;;;;;5023651;28;20298;-71
2023/03/28 09:02:35;;;;;;;37.78;34.38;;;4.90;99.90;;;;;;5019018;28;20068;-72
2023/03/28 09:05:03;;;;;;;39.83;35.50;;;4.80;99.90;;;;;;5015435;28;20415;-72
2023/03/28 09:08:02;;;;;;;37.83;34.03;;;4.90;99.90;;;;;;5007358;28;20139;-72
2023/03/28 09:10:37;;;;;;;44.97;37.85;;;5.10;99.90;;;;;;5011851;28;20107;-72
2023/03/28 09:13:21;;;;;;;44.90;40.70;;;5.20;99.90;;;;;;5019439;28;20491;-71
2023/03/28 09:15:58;;;;;;;42.28;38.72;;;4.90;99.90;;;;;;5022356;28;20045;-72
2023/03/28 09:19:02;;;;;;;37.13;33.75;;;4.60;99.90;;;;;;5019200;28;20046;-71
2023/03/28 09:21:36;;;;;;;46.03;41.47;;;4.60;99.90;;;;;;5020667;28;20045;-72
2023/03/28 09:24:16;;;;;;;43.13;39.03;;;4.50;99.90;;;;;;5030458;28;20506;-73
2023/03/28 09:27:26;;;;;;;42.65;38.83;;;4.70;99.90;;;;;;5008528;28;20041;-73
2023/03/28 09:30:02;;;;;;;40.28;37.25;;;5.40;99.90;;;;;;5018327;28;20733;-72
2023/03/28 09:32:35;;;;;;;43.20;39.45;;;6.00;99.90;;;;;;5021238;28;20278;-73
2023/03/28 09:35:11;;;;;;;46.88;43.08;;;6.40;99.90;;;;;;5007933;28;20566;-72
2023/03/28 09:37:41;;;;;;;46.63;43.20;;;6.30;99.90;;;;;;5020680;28;20158;-72
2023/03/28 09:40:23;;;;;;;43.58;39.85;;;6.30;99.90;;;;;;5020616;28;20029;-73
2023/03/28 09:43:32;;;;;;;44.65;41.15;;;6.50;99.90;;;;;;5017662;28;20064;-72
2023/03/28 09:46:37;;;;;;;45.22;41.90;;;6.80;99.90;;;;;;5015788;28;20057;-72
2023/03/28 09:49:23;;;;;;;52.33;48.50;;;7.00;99.90;;;;;;5017711;28;20504;-72
2023/03/28 09:52:16;;;;;;;48.30;44.97;;;7.20;99.90;;;;;;5020019;28;20191;-72
2023/03/28 09:54:44;;;;;;;52.20;48.00;;;7.00;99.90;;;;;;5023475;28;20132;-73
2023/03/28 09:57:11;;;;;;;54.75;51.08;;;6.70;99.90;;;;;;5020909;28;20046;-73
2023/03/28 09:59:55;;;;;;;46.38;42.58;;;6.10;99.90;;;;;;5017029;28;20044;-72
2023/03/28 10:02:31;;;;;;;45.47;41.97;;;5.80;99.90;;;;;;5017477;28;20053;-72
2023/03/28 10:05:02;;;;;;;45.15;42.03;;;6.10;99.90;;;;;;5017319;28;20048;-73
2023/03/28 10:07:42;;;;;;;41.95;38.22;;;6.50;99.90;;;;;;5016100;28;20064;-72
2023/03/28 10:10:35;;;;;;;46.17;43.30;;;6.70;99.90;;;;;;5013934;28;20124;-71
2023/03/28 10:13:04;;;;;;;45.22;41.67;;;7.00;99.90;;;;;;5018104;28;20539;-71
2023/03/28 10:15:40;;;;;;;44.25;40.88;;;7.00;99.90;;;;;;5022183;28;20037;-73
2023/03/28 10:18:30;;;;;;;;;;;7.20;99.90;;;;;;5022839;28;20591;-72
2023/03/28 10:21:16;;;;;;;47.60;44.40;;;7.20;99.90;;;;;;5021629;28;20119;-72
2023/03/28 10:23:57;;;;;;;45.72;42.60;;;6.80;99.90;;;;;;5035762;28;20106;-72
2023/03/28 10:26:25;;;;;;;55.53;51.38;;;6.10;99.90;;;;;;5027313;28;20041;-71
2023/03/28 10:28:56;;;;;;;51.95;48.50;;;5.80;99.90;;;;;;5022136;28;20041;-71
2023/03/28 10:31:29;;;;;;;50.65;47.20;;;5.80;99.90;;;;;;5020466;28;20076;-70
2023/03/28 10:34:28;;;;;;;42.22;38.30;;;5.70;99.90;;;;;;5022103;28;20233;-71
2023/03/28 10:37:26;;;;;;;44.53;41.50;;;5.70;99.90;;;;;;5024979;28;20138;-74
2023/03/28 10:40:21;;;;;;;46.33;42.75;;;5.70;99.90;;;;;;5027826;28;20297;-73
2023/03/28 10:43:13;;;;;;;41.67;36.85;;;6.00;99.90;;;;;;5030027;28;20052;-73
2023/03/28 10:46:21;;;;;;;42.25;39.63;;;6.30;99.90;;;;;;5029620;28;20052;-73
2023/03/28 10:49:16;;;;;;;46.55;43.15;;;6.50;99.90;;;;;;5013939;28;20137;-73
2023/03/28 10:51:51;;;;;;;51.30;47.72;;;6.80;99.90;;;;;;5011664;28;20116;-73
2023/03/28 10:54:30;;;;;;;48.33;44.85;;;6.90;99.90;;;;;;5012556;28;20049;-72
2023/03/28 10:57:03;;;;;;;48.55;45.00;;;6.60;99.90;;;;;;5019458;28;20049;-72
2023/03/28 10:59:54;;;;;;;47.15;43.80;;;6.30;99.90;;;;;;5017244;28;20049;-72
2023/03/28 11:02:41;;;;;;;47.45;44.38;;;6.20;99.90;;;;;;5006532;28;20044;-73
2023/03/28 11:05:44;;;;;;;46.85;43.40;;;6.20;99.90;;;;;;5030612;28;20151;-74
2023/03/28 11:08:37;;;;;;;46.45;43.30;;;6.30;99.90;;;;;;5023968;28;20044;-72
2023/03/28 11:11:28;;;;;;;48.22;43.95;;;6.20;99.90;;;;;;5016547;28;20069;-72
2023/03/28 11:14:23;;;;;;;44.75;41.47;;;6.00;99.90;;;;;;5016631;28;20847;-72
2023/03/28 11:17:12;;;;;;;42.25;39.20;;;5.90;99.90;;;;;;5027409;28;20049;-72
2023/03/28 11:19:48;;;;;;;;;;;5.90;99.90;;;;;;5017388;28;20535;-73
2023/03/28 11:22:46;;;;;;;40.53;37.83;;;6.40;99.90;;;;;;5024050;28;19925;-72
2023/03/28 11:25:50;;;;;;;41.75;38.45;;;6.50;99.90;;;;;;5015854;28;20044;-72
2023/03/28 11:29:07;;;;;;;44.17;40.95;;;6.20;99.90;;;;;;5022356;28;20060;-72
2023/03/28 11:31:42;;;;;;;43.85;41.10;;;6.20;99.90;;;;;;5021239;28;20044;-73
2023/03/28 11:34:11;;;;;;;42.00;38.97;;;6.60;99.90;;;;;;5028058;28;20503;-74
2023/03/28 11:36:49;;;;;;;44.10;40.78;;;6.80;99.90;;;;;;5023770;28;20054;-73
2023/03/28 11:39:50;;;;;;;45.50;42.38;;;7.00;99.90;;;;;;5024479;28;20503;-73
2023/03/28 11:42:45;;;;;;;36.83;34.00;;;6.80;99.90;;;;;;5020669;28;20163;-73
2023/03/28 11:45:33;;;;;;;34.65;32.03;;;6.70;99.90;;;;;;5022893;28;20438;-73
2023/03/28 11:48:50;;;;;;;39.80;36.70;;;6.50;99.90;;;;;;5017542;28;20045;-74
2023/03/28 11:51:33;;;;;;;36.60;33.63;;;6.40;99.90;;;;;;5016863;28;20049;-73
2023/03/28 11:54:11;;;;;;;35.83;32.95;;;6.20;99.90;;;;;;5032652;28;20296;-73
2023/03/28 11:56:55;;;;;;;38.63;35.67;;;6.20;99.90;;;;;;5024457;28;20044;-74
2023/03/28 11:59:41;;;;;;;37.35;34.30;;;6.30;99.90;;;;;;5020326;28;20630;-76
2023/03/28 12:02:21;;;;;;;43.03;40.08;;;6.10;99.90;;;;;;5023078;28;20124;-75
2023/03/28 12:05:22;;;;;;;41.33;38.13;;;6.00;99.90;;;;;;5014696;28;20507;-75
2023/03/28 12:08:00;;;;;;;41.15;38.38;;;6.10;99.90;;;;;;5007848;28;20519;-75
2023/03/28 12:10:35;;;;;;;39.42;36.88;;;6.30;99.90;;;;;;5023422;28;20055;-76
2023/03/28 12:13:18;;;;;;;39.28;36.42;;;6.40;99.90;;;;;;5011155;28;20508;-77
2023/03/28 12:16:05;;;;;;;37.80;34.60;;;6.30;99.90;;;;;;5028072;28;20574;-75
2023/03/28 12:18:57;;;;;;;40.80;37.67;;;6.20;99.90;;;;;;5023455;28;20562;-75
2023/03/28 12:21:57;;;;;;;39.20;36.33;;;6.20;99.90;;;;;;5012348;28;20085;-77
2023/03/28 12:24:52;;;;;;;40.22;36.80;;;6.30;99.90;;;;;;5014304;28;20042;-75
2023/03/28 12:27:41;;;;;;;43.20;40.20;;;6.20;99.90;;;;;;5030821;28;20037;-75
2023/03/28 12:30:19;;;;;;;41.88;38.85;;;5.90;99.90;;;;;;5021199;28;20525;-75
2023/03/28 12:33:31;;;;;;;43.90;40.53;;;6.10;99.90;;;;;;5027461;28;20530;-75
2023/03/28 12:36:27;;;;;;;41.75;38.97;;;6.50;99.90;;;;;;5013555;28;20447;-75
2023/03/28 12:39:33;;;;;;;42.42;39.50;;;6.80;99.90;;;;;;5012042;28;20627;-75
2023/03/28 12:42:08;;;;;;;42.15;39.20;;;6.90;99.90;;;;;;5025299;28;20048;-74
2023/03/28 12:44:43;;;;;;;44.25;40.42;;;7.00;99.90;;;;;;5022655;28;20045;-74
2023/03/28 12:47:25;;;;;;;45.08;41.47;;;7.00;99.90;;;;;;5027028;28;20259;-75
2023/03/28 12:50:00;;;;;;;40.63;37.63;;;7.20;99.90;;;;;;5029719;28;20053;-75
2023/03/28 12:52:31;;;;;;;41.35;38.65;;;7.40;99.90;;;;;;5013594;28;20045;-75
2023/03/28 12:55:08;;;;;;;44.55;41.17;;;7.20;99.90;;;;;;5018707;28;20344;-75
2023/03/28 12:57:41;;;;;;;42.22;39.00;;;7.10;99.90;;;;;;5017512;28;20045;-75
2023/03/28 13:00:32;;;;;;;43.25;40.45;;;7.10;99.90;;;;;;5024394;28;20096;-75
2023/03/28 13:03:50;;;;;;;41.53;38.65;;;7.30;99.90;;;;;;5017130;28;20050;-75
2023/03/28 13:06:44;;;;;;;44.13;41.30;;;7.40;99.90;;;;;;5020587;28;20044;-74
2023/03/28 13:09:37;;;;;;;41.70;39.15;;;7.70;99.90;;;;;;5026388;28;20145;-74
2023/03/28 13:12:23;;;;;;;39.50;36.75;;;8.00;99.90;;;;;;5024001;28;20419;-74
2023/03/28 13:15:17;;;;;;;39.90;37.17;;;7.90;99.90;;;;;;5027218;28;20865;-74
2023/03/28 13:18:16;;;;;;;40.78;37.92;;;7.80;99.90;;;;;;5008389;28;20053;-74
2023/03/28 13:20:45;;;;;;;45.22;41.92;;;7.70;99.90;;;;;;5019075;28;20037;-74
2023/03/28 13:23:14;;;;;;;41.88;39.10;;;7.90;99.90;;;;;;5020243;28;20045;-73
2023/03/28 13:25:51;;;;;;;41.97;39.58;;;7.90;99.90;;;;;;5018427;28;20037;-74
2023/03/28 13:28:22;;;;;;;41.92;39.33;;;8.00;99.90;;;;;;5028683;28;20076;-74
2023/03/28 13:31:03;;;;;;;42.38;39.72;;;8.10;99.90;;;;;;5024366;28;20044;-74
2023/03/28 13:33:33;;;;;;;42.40;39.63;;;7.90;99.90;;;;;;5015002;28;20048;-74
2023/03/28 13:36:00;;;;;;;46.33;42.72;;;7.60;99.90;;;;;;5025027;28;20041;-74